createdAt,value
2022-09-27T00:01:13.198Z,8.03
2022-09-27T00:03:43.566Z,7.98
2022-09-27T00:06:18.875Z,7.90
2022-09-27T00:08:46.718Z,7.82
2022-09-27T00:11:28.879Z,7.74
2022-09-27T00:13:58.903Z,7.69
2022-09-27T00:16:30.982Z,7.65
2022-09-27T00:19:00.839Z,7.58
2022-09-27T00:21:30.770Z,7.54
2022-09-27T00:23:59.652Z,7.51
2022-09-27T00:26:29.515Z,7.44
2022-09-27T00:28:58.277Z,7.41
2022-09-27T00:31:29.949Z,7.38
2022-09-27T00:34:00.742Z,7.31
2022-09-27T00:36:30.340Z,7.24
2022-09-27T00:39:00.197Z,7.22
2022-09-27T00:41:36.253Z,7.21
2022-09-27T00:44:25.930Z,7.17
2022-09-27T00:47:22.945Z,7.07
2022-09-27T00:49:57.584Z,6.97
2022-09-27T00:52:42.191Z,6.91
2022-09-27T00:55:16.103Z,6.84
2022-09-27T00:57:46.250Z,6.79
2022-09-27T01:00:15.476Z,6.74
2022-09-27T01:02:50.660Z,6.71
2022-09-27T01:05:22.064Z,6.70
2022-09-27T01:07:50.517Z,6.71
2022-09-27T01:10:19.889Z,6.71
2022-09-27T01:13:01.595Z,6.68
2022-09-27T01:15:43.533Z,6.63
2022-09-27T01:18:24.291Z,6.61
2022-09-27T01:21:10.653Z,6.61
2022-09-27T01:24:24.015Z,6.64
2022-09-27T01:27:22.315Z,6.69
2022-09-27T01:30:13.784Z,6.65
2022-09-27T01:32:55.044Z,6.60
2022-09-27T01:35:22.807Z,6.58
2022-09-27T01:37:54.916Z,6.58
2022-09-27T01:41:07.125Z,6.62
2022-09-27T01:44:20.866Z,6.69
2022-09-27T01:46:56.443Z,6.83
2022-09-27T01:49:56.909Z,6.95
2022-09-27T01:52:35.391Z,7.04
2022-09-27T01:55:08.134Z,7.15
2022-09-27T01:58:26.811Z,7.25
2022-09-27T02:00:58.365Z,7.33
2022-09-27T02:03:33.870Z,7.40
2022-09-27T02:06:45.727Z,7.53
2022-09-27T02:09:29.029Z,7.67
2022-09-27T02:12:13.329Z,7.81
2022-09-27T02:14:46.114Z,7.92
2022-09-27T02:17:23.588Z,7.98
2022-09-27T02:20:07.941Z,8.01
2022-09-27T02:22:50.532Z,8.08
2022-09-27T02:25:24.502Z,8.06
2022-09-27T02:28:13.939Z,8.08
2022-09-27T02:30:42.307Z,8.15
2022-09-27T02:33:28.263Z,8.24
2022-09-27T02:35:56.258Z,8.32
2022-09-27T02:38:24.800Z,8.39
2022-09-27T02:40:55.136Z,8.49
2022-09-27T02:43:27.678Z,8.53
2022-09-27T02:46:11.710Z,8.57
2022-09-27T02:49:05.896Z,8.62
2022-09-27T02:51:54.416Z,8.68
2022-09-27T02:54:37.345Z,8.71
2022-09-27T02:57:24.011Z,8.75
2022-09-27T03:00:21.656Z,8.83
2022-09-27T03:03:07.041Z,8.91
2022-09-27T03:06:05.537Z,8.98
2022-09-27T03:08:33.886Z,9.03
2022-09-27T03:11:01.982Z,9.06
2022-09-27T03:13:30.586Z,9.09
2022-09-27T03:16:01.562Z,9.11
2022-09-27T03:18:48.743Z,9.16
2022-09-27T03:21:35.341Z,9.19
2022-09-27T03:24:03.769Z,9.19
2022-09-27T03:26:32.115Z,9.21
2022-09-27T03:29:00.076Z,9.16
2022-09-27T03:31:28.684Z,9.18
2022-09-27T03:34:17.061Z,9.16
2022-09-27T03:36:45.550Z,9.15
2022-09-27T03:39:13.621Z,9.15
2022-09-27T03:41:41.821Z,9.13
2022-09-27T03:44:09.842Z,9.16
2022-09-27T03:46:37.699Z,9.16
2022-09-27T03:49:05.583Z,9.09
2022-09-27T03:51:33.400Z,9.05
2022-09-27T03:54:01.255Z,8.99
2022-09-27T03:56:29.534Z,8.90
2022-09-27T03:58:57.306Z,8.92
2022-09-27T04:01:27.114Z,8.89
2022-09-27T04:03:55.793Z,8.89
2022-09-27T04:06:31.362Z,8.88
2022-09-27T04:08:59.246Z,8.85
2022-09-27T04:11:35.368Z,8.81
2022-09-27T04:14:05.727Z,8.75
2022-09-27T04:16:37.042Z,8.70
2022-09-27T04:19:29.301Z,8.64
2022-09-27T04:22:10.995Z,8.60
2022-09-27T04:24:39.794Z,8.59
2022-09-27T04:27:25.015Z,8.57
2022-09-27T04:29:52.936Z,8.54
2022-09-27T04:32:45.081Z,8.50
2022-09-27T04:36:04.520Z,8.44
2022-09-27T04:38:35.184Z,8.41
2022-09-27T04:41:03.396Z,8.36
2022-09-27T04:43:34.548Z,8.37
2022-09-27T04:46:04.261Z,8.38
2022-09-27T04:48:32.365Z,8.39
2022-09-27T04:51:05.345Z,8.36
2022-09-27T04:53:33.901Z,8.33
2022-09-27T04:56:06.113Z,8.28
2022-09-27T04:58:35.359Z,8.28
2022-09-27T05:01:04.379Z,8.27
2022-09-27T05:03:47.758Z,8.32
2022-09-27T05:06:16.985Z,8.37
2022-09-27T05:08:45.844Z,8.36
2022-09-27T05:11:25.046Z,8.40
2022-09-27T05:17:10.191Z,8.58
2022-09-27T05:20:05.016Z,8.68
2022-09-27T05:22:40.501Z,8.77
2022-09-27T05:25:09.965Z,8.79
2022-09-27T05:27:38.561Z,8.85
2022-09-27T05:30:08.315Z,8.90
2022-09-27T05:32:44.245Z,8.97
2022-09-27T05:35:36.303Z,9.06
2022-09-27T05:38:04.486Z,9.13
2022-09-27T05:40:41.292Z,9.24
2022-09-27T05:43:10.476Z,9.32
2022-09-27T05:45:38.441Z,9.38
2022-09-27T05:48:08.416Z,9.45
2022-09-27T05:50:45.724Z,9.50
2022-09-27T05:53:13.891Z,9.55
2022-09-27T05:55:43.297Z,9.61
2022-09-27T05:58:13.839Z,9.65
2022-09-27T06:00:47.974Z,9.71
2022-09-27T06:03:40.198Z,9.76
2022-09-27T06:06:26.655Z,9.84
2022-09-27T06:08:57.727Z,9.85
2022-09-27T06:11:27.889Z,9.88
2022-09-27T06:13:55.924Z,9.91
2022-09-27T06:16:25.520Z,9.95
2022-09-27T06:18:54.142Z,10.04
2022-09-27T06:21:22.755Z,10.11
2022-09-27T06:23:58.565Z,10.16
2022-09-27T06:26:31.457Z,10.24
2022-09-27T06:29:15.122Z,10.26
2022-09-27T06:31:56.859Z,10.30
2022-09-27T06:34:37.789Z,10.33
2022-09-27T06:37:05.647Z,10.34
2022-09-27T06:39:34.511Z,10.35
2022-09-27T06:42:18.142Z,10.37
2022-09-27T06:45:18.157Z,10.40
2022-09-27T06:48:06.920Z,10.41
2022-09-27T06:50:49.288Z,10.45
2022-09-27T06:53:17.890Z,10.52
2022-09-27T06:55:46.085Z,10.61
2022-09-27T06:58:32.848Z,10.67
2022-09-27T07:01:20.619Z,10.75
2022-09-27T07:04:26.889Z,10.84
2022-09-27T07:07:30.451Z,10.95
2022-09-27T07:09:59.035Z,11.08
2022-09-27T07:12:28.949Z,11.20
2022-09-27T07:14:57.183Z,11.36
2022-09-27T07:17:25.072Z,11.55
2022-09-27T07:19:55.430Z,11.72
2022-09-27T07:22:23.799Z,11.84
2022-09-27T07:25:00.824Z,11.95
2022-09-27T07:27:28.878Z,12.08
2022-09-27T07:29:56.923Z,12.16
2022-09-27T07:32:26.252Z,12.20
2022-09-27T07:34:54.814Z,12.30
2022-09-27T07:37:23.730Z,12.38
2022-09-27T07:39:51.566Z,12.46
2022-09-27T07:42:19.908Z,12.53
2022-09-27T07:44:52.318Z,12.60
2022-09-27T07:47:53.081Z,12.68
2022-09-27T07:50:40.074Z,12.75
2022-09-27T07:53:26.825Z,12.82
2022-09-27T07:56:05.200Z,12.87
2022-09-27T07:58:34.469Z,12.89
2022-09-27T08:01:06.111Z,12.94
2022-09-27T08:03:35.111Z,12.97
2022-09-27T08:06:04.653Z,13.03
2022-09-27T08:08:33.135Z,13.05
2022-09-27T08:11:16.204Z,13.03
2022-09-27T08:13:48.059Z,13.07
2022-09-27T08:16:16.027Z,13.10
2022-09-27T08:19:16.080Z,13.08
2022-09-27T08:21:58.763Z,13.12
2022-09-27T08:24:30.995Z,13.20
2022-09-27T08:27:21.902Z,13.26
2022-09-27T08:29:53.456Z,13.33
2022-09-27T08:32:23.444Z,13.42
2022-09-27T08:34:52.980Z,13.50
2022-09-27T08:37:22.895Z,13.59
2022-09-27T08:39:51.283Z,13.74
2022-09-27T08:42:50.446Z,13.86
2022-09-27T08:45:50.788Z,14.00
2022-09-27T08:48:27.612Z,14.12
2022-09-27T08:50:56.370Z,14.22
2022-09-27T08:53:36.379Z,14.34
2022-09-27T08:56:08.710Z,14.44
2022-09-27T08:58:53.200Z,14.54
2022-09-27T09:01:32.672Z,14.66
2022-09-27T09:04:11.617Z,14.82
2022-09-27T09:06:59.699Z,14.93
2022-09-27T09:09:36.725Z,15.05
2022-09-27T09:12:45.654Z,15.15
2022-09-27T09:15:32.053Z,15.20
2022-09-27T09:18:23.957Z,15.29
2022-09-27T09:21:17.585Z,15.45
2022-09-27T09:24:23.125Z,15.48
2022-09-27T09:27:04.847Z,15.48
2022-09-27T09:29:38.841Z,15.52
2022-09-27T09:32:28.878Z,15.57
2022-09-27T09:35:06.409Z,15.62
2022-09-27T09:37:41.482Z,15.62
2022-09-27T09:40:28.181Z,15.56
2022-09-27T09:43:15.415Z,15.50
2022-09-27T09:45:47.304Z,15.49
2022-09-27T09:48:39.879Z,15.52
2022-09-27T09:51:13.187Z,15.55
2022-09-27T09:53:52.341Z,15.60
2022-09-27T09:57:18.648Z,15.56
2022-09-27T09:59:54.482Z,15.50
2022-09-27T10:02:36.975Z,15.47
2022-09-27T10:05:16.733Z,15.39
2022-09-27T10:07:47.095Z,15.24
2022-09-27T10:10:17.687Z,15.12
2022-09-27T10:13:22.335Z,15.01
2022-09-27T10:16:04.495Z,14.96
2022-09-27T10:18:35.908Z,14.99
2022-09-27T10:21:16.332Z,15.04
2022-09-27T10:24:07.506Z,15.01
2022-09-27T10:27:00.943Z,15.07
2022-09-27T10:29:37.008Z,15.11
2022-09-27T10:32:22.554Z,15.13
2022-09-27T10:34:51.405Z,15.16
2022-09-27T10:37:24.605Z,15.19
2022-09-27T10:40:38.968Z,15.19
2022-09-27T10:43:29.301Z,15.25
2022-09-27T10:46:32.921Z,15.26
2022-09-27T10:49:26.917Z,15.20
2022-09-27T10:51:58.169Z,15.23
2022-09-27T10:54:30.373Z,15.27
2022-09-27T10:57:04.769Z,15.32
2022-09-27T10:59:36.953Z,15.41
2022-09-27T11:02:06.511Z,15.51
2022-09-27T11:04:41.162Z,15.67
2022-09-27T11:07:12.019Z,15.69
2022-09-27T11:09:55.245Z,15.74
2022-09-27T11:12:25.434Z,15.82
2022-09-27T11:15:06.866Z,15.90
2022-09-27T11:17:47.611Z,16.02
2022-09-27T11:20:39.431Z,16.11
2022-09-27T11:23:23.566Z,16.16
2022-09-27T11:26:10.971Z,16.21
2022-09-27T11:29:12.139Z,16.22
2022-09-27T11:32:12.979Z,16.19
2022-09-27T11:34:47.591Z,16.17
2022-09-27T11:37:24.613Z,16.19
2022-09-27T11:40:15.187Z,16.20
2022-09-27T11:42:58.492Z,16.19
2022-09-27T11:46:10.815Z,16.14
2022-09-27T11:49:01.770Z,16.11
2022-09-27T11:52:07.584Z,16.08
2022-09-27T11:55:01.515Z,16.08
2022-09-27T11:57:45.304Z,16.11
2022-09-27T12:00:21.005Z,16.08
2022-09-27T12:03:14.931Z,16.02
2022-09-27T12:06:02.427Z,15.98
2022-09-27T12:08:52.377Z,15.93
2022-09-27T12:11:26.675Z,15.86
2022-09-27T12:14:04.080Z,15.84
2022-09-27T12:16:32.979Z,15.82
2022-09-27T12:19:03.615Z,15.80
2022-09-27T12:21:47.999Z,15.66
2022-09-27T12:24:22.289Z,15.58
2022-09-27T12:27:09.833Z,15.56
2022-09-27T12:29:43.609Z,15.54
2022-09-27T12:32:26.692Z,15.53
2022-09-27T12:35:03.832Z,15.54
2022-09-27T12:37:38.011Z,15.54
2022-09-27T12:40:38.941Z,15.49
2022-09-27T12:43:17.760Z,15.47
2022-09-27T12:46:19.219Z,15.48
2022-09-27T12:49:00.641Z,15.45
2022-09-27T12:51:37.110Z,15.42
2022-09-27T12:54:13.548Z,15.43
2022-09-27T12:56:44.725Z,15.41
2022-09-27T12:59:44.836Z,15.39
2022-09-27T13:03:14.061Z,15.36
2022-09-27T13:05:50.438Z,15.30
2022-09-27T13:08:34.823Z,15.31
2022-09-27T13:11:23.605Z,15.32
2022-09-27T13:13:57.024Z,15.33
2022-09-27T13:16:25.996Z,15.33
2022-09-27T13:19:02.908Z,15.31
2022-09-27T13:21:50.159Z,15.34
2022-09-27T13:24:47.291Z,15.36
2022-09-27T13:27:30.156Z,15.37
2022-09-27T13:30:09.967Z,15.38
2022-09-27T13:32:41.051Z,15.43
2022-09-27T13:35:26.764Z,15.51
2022-09-27T13:38:00.607Z,15.56
2022-09-27T13:40:43.682Z,15.50
2022-09-27T13:43:31.430Z,15.41
2022-09-27T13:46:11.068Z,15.40
2022-09-27T13:48:57.263Z,15.35
2022-09-27T13:51:51.672Z,15.29
2022-09-27T13:54:42.114Z,15.22
2022-09-27T13:57:49.011Z,15.15
2022-09-27T14:00:24.712Z,15.10
2022-09-27T14:03:08.101Z,15.06
2022-09-27T14:05:44.185Z,14.98
2022-09-27T14:08:37.227Z,14.88
2022-09-27T14:11:13.906Z,14.81
2022-09-27T14:13:46.602Z,14.69
2022-09-27T14:16:16.706Z,14.65
2022-09-27T14:18:57.806Z,14.63
2022-09-27T14:21:43.432Z,14.59
2022-09-27T14:24:32.048Z,14.55
2022-09-27T14:27:10.062Z,14.53
2022-09-27T14:29:42.563Z,14.47
2022-09-27T14:32:18.135Z,14.46
2022-09-27T14:35:32.555Z,14.46
2022-09-27T14:38:15.664Z,14.49
2022-09-27T14:41:04.102Z,14.49
2022-09-27T14:43:33.215Z,14.49
2022-09-27T14:46:09.594Z,14.49
2022-09-27T14:48:40.369Z,14.47
2022-09-27T14:51:14.440Z,14.48
2022-09-27T14:53:57.350Z,14.48
2022-09-27T14:56:28.666Z,14.46
2022-09-27T14:59:03.440Z,14.46
2022-09-27T15:01:31.319Z,14.49
2022-09-27T15:04:07.015Z,14.49
2022-09-27T15:06:38.904Z,14.50
2022-09-27T15:09:10.399Z,14.49
2022-09-27T15:11:41.698Z,14.44
2022-09-27T15:14:16.478Z,14.36
2022-09-27T15:16:48.096Z,14.33
2022-09-27T15:19:22.605Z,14.29
2022-09-27T15:21:50.419Z,14.29
2022-09-27T15:24:44.176Z,14.31
2022-09-27T15:27:26.010Z,14.34
2022-09-27T15:29:56.618Z,14.36
2022-09-27T15:32:27.725Z,14.38
2022-09-27T15:34:57.184Z,14.37
2022-09-27T15:37:35.270Z,14.34
2022-09-27T15:40:16.503Z,14.30
2022-09-27T15:43:30.255Z,14.21
2022-09-27T15:46:03.159Z,14.19
2022-09-27T15:48:33.424Z,14.22
2022-09-27T15:51:03.209Z,14.12
2022-09-27T15:53:36.923Z,14.06
2022-09-27T15:56:06.841Z,14.01
2022-09-27T15:58:36.902Z,14.01
2022-09-27T16:01:08.460Z,13.95
2022-09-27T16:03:36.326Z,13.89
2022-09-27T16:06:04.858Z,13.83
2022-09-27T16:08:32.796Z,13.78
2022-09-27T16:11:03.420Z,13.75
2022-09-27T16:13:33.315Z,13.74
2022-09-27T16:16:03.451Z,13.70
2022-09-27T16:18:32.982Z,13.63
2022-09-27T16:21:00.775Z,13.55
2022-09-27T16:23:28.883Z,13.52
2022-09-27T16:25:56.848Z,13.50
2022-09-27T16:28:24.618Z,13.42
2022-09-27T16:30:52.786Z,13.37
2022-09-27T16:33:20.716Z,13.31
2022-09-27T16:35:50.305Z,13.21
2022-09-27T16:38:18.134Z,13.08
2022-09-27T16:40:45.940Z,12.94
2022-09-27T16:43:13.738Z,12.78
2022-09-27T16:45:41.557Z,12.56
2022-09-27T16:48:09.401Z,12.36
2022-09-27T16:50:56.085Z,12.17
2022-09-27T16:53:24.404Z,12.03
2022-09-27T16:55:52.458Z,11.88
2022-09-27T16:58:20.214Z,11.75
2022-09-27T17:00:47.957Z,11.61
2022-09-27T17:03:15.846Z,11.51
2022-09-27T17:05:43.589Z,11.46
2022-09-27T17:08:11.421Z,11.35
2022-09-27T17:10:45.305Z,11.29
2022-09-27T17:13:13.575Z,11.21
2022-09-27T17:15:42.105Z,11.15
2022-09-27T17:18:10.356Z,11.10
2022-09-27T17:20:38.098Z,11.05
2022-09-27T17:23:06.278Z,10.99
2022-09-27T17:25:34.650Z,10.94
2022-09-27T17:28:02.501Z,10.93
2022-09-27T17:30:31.219Z,10.93
2022-09-27T17:32:59.036Z,10.89
2022-09-27T17:35:26.796Z,10.83
2022-09-27T17:37:54.625Z,10.78
2022-09-27T17:40:22.497Z,10.73
2022-09-27T17:42:51.170Z,10.70
2022-09-27T17:45:18.994Z,10.68
2022-09-27T17:48:07.832Z,10.62
2022-09-27T17:50:37.675Z,10.56
2022-09-27T17:53:05.521Z,10.52
2022-09-27T17:55:33.371Z,10.47
2022-09-27T17:58:02.321Z,10.41
2022-09-27T18:00:30.627Z,10.36
2022-09-27T18:02:58.453Z,10.30
2022-09-27T18:05:26.371Z,10.27
2022-09-27T18:07:54.107Z,10.27
2022-09-27T18:10:21.938Z,10.26
2022-09-27T18:12:49.721Z,10.26
2022-09-27T18:15:20.049Z,10.27
2022-09-27T18:17:53.326Z,10.28
2022-09-27T18:20:23.770Z,10.26
2022-09-27T18:22:53.434Z,10.22
2022-09-27T18:25:21.182Z,10.18
2022-09-27T18:27:51.569Z,10.17
2022-09-27T18:30:19.354Z,10.17
2022-09-27T18:32:47.191Z,10.19
2022-09-27T18:35:15.769Z,10.21
2022-09-27T18:37:47.640Z,10.25
2022-09-27T18:40:27.866Z,10.27
2022-09-27T18:43:04.754Z,10.31
2022-09-27T18:45:38.211Z,10.28
2022-09-27T18:48:06.122Z,10.28
2022-09-27T18:50:37.573Z,10.25
2022-09-27T18:53:05.620Z,10.23
2022-09-27T18:55:38.634Z,10.25
2022-09-27T18:58:14.346Z,10.22
2022-09-27T19:00:44.730Z,10.25
2022-09-27T19:03:17.528Z,10.23
2022-09-27T19:05:54.088Z,10.24
2022-09-27T19:08:21.897Z,10.23
2022-09-27T19:10:49.887Z,10.22
2022-09-27T19:13:17.784Z,10.20
2022-09-27T19:15:57.442Z,10.18
2022-09-27T19:18:26.430Z,10.14
2022-09-27T19:20:55.320Z,10.13
2022-09-27T19:23:23.717Z,10.12
2022-09-27T19:25:51.981Z,10.12
2022-09-27T19:28:20.644Z,10.09
2022-09-27T19:30:48.373Z,10.05
2022-09-27T19:33:16.302Z,9.98
2022-09-27T19:35:44.149Z,9.93
2022-09-27T19:38:11.858Z,9.89
2022-09-27T19:40:40.090Z,9.86
2022-09-27T19:43:08.029Z,9.84
2022-09-27T19:45:37.407Z,9.83
2022-09-27T19:48:05.316Z,9.82
2022-09-27T19:50:33.146Z,9.80
2022-09-27T19:53:00.917Z,9.79
2022-09-27T19:55:29.707Z,9.77
2022-09-27T19:57:57.640Z,9.76
2022-09-27T20:00:25.882Z,9.76
2022-09-27T20:02:53.873Z,9.75
2022-09-27T20:05:21.682Z,9.73
2022-09-27T20:07:53.957Z,9.72
2022-09-27T20:10:21.733Z,9.67
2022-09-27T20:12:51.880Z,9.62
2022-09-27T20:15:20.295Z,9.58
2022-09-27T20:17:48.342Z,9.57
2022-09-27T20:20:16.117Z,9.57
2022-09-27T20:22:43.958Z,9.57
2022-09-27T20:25:11.702Z,9.60
2022-09-27T20:27:39.945Z,9.61
2022-09-27T20:30:08.618Z,9.60
2022-09-27T20:32:37.253Z,9.59
2022-09-27T20:35:05.540Z,9.57
2022-09-27T20:37:33.720Z,9.56
2022-09-27T20:40:02.018Z,9.56
2022-09-27T20:42:30.012Z,9.55
2022-09-27T20:44:57.783Z,9.56
2022-09-27T20:47:25.515Z,9.58
2022-09-27T20:49:53.255Z,9.59
2022-09-27T20:52:21.356Z,9.58
2022-09-27T20:54:49.094Z,9.57
2022-09-27T20:57:17.114Z,9.58
2022-09-27T20:59:44.883Z,9.57
2022-09-27T21:02:12.809Z,9.52
2022-09-27T21:04:41.118Z,9.49
2022-09-27T21:07:08.847Z,9.47
2022-09-27T21:09:38.687Z,9.42
2022-09-27T21:12:06.541Z,9.41
2022-09-27T21:14:34.319Z,9.36
2022-09-27T21:17:02.368Z,9.32
2022-09-27T21:19:30.781Z,9.31
2022-09-27T21:21:58.642Z,9.28
2022-09-27T21:24:26.591Z,9.27
2022-09-27T21:26:54.563Z,9.26
2022-09-27T21:29:22.436Z,9.23
2022-09-27T21:31:50.340Z,9.21
2022-09-27T21:34:18.197Z,9.19
2022-09-27T21:36:46.015Z,9.15
2022-09-27T21:39:15.572Z,9.13
2022-09-27T21:41:43.491Z,9.11
2022-09-27T21:44:11.769Z,9.08
2022-09-27T21:46:41.252Z,9.05
2022-09-27T21:49:09.237Z,9.05
2022-09-27T21:51:39.515Z,9.05
2022-09-27T21:54:10.904Z,9.06
2022-09-27T21:56:40.393Z,9.07
2022-09-27T21:59:12.117Z,9.06
2022-09-27T22:01:43.134Z,9.03
2022-09-27T22:04:13.016Z,9.03
2022-09-27T22:06:41.027Z,9.01
2022-09-27T22:09:14.116Z,8.98
2022-09-27T22:11:44.303Z,9.01
2022-09-27T22:14:13.047Z,8.96
2022-09-27T22:16:41.305Z,8.93
2022-09-27T22:19:11.770Z,8.93
2022-09-27T22:21:40.314Z,8.90
2022-09-27T22:24:13.366Z,8.86
2022-09-27T22:26:45.386Z,8.86
2022-09-27T22:29:13.176Z,8.81
2022-09-27T22:31:41.083Z,8.78
2022-09-27T22:34:17.113Z,8.74
2022-09-27T22:36:44.857Z,8.69
2022-09-27T22:39:13.140Z,8.64
2022-09-27T22:41:41.205Z,8.61
2022-09-27T22:44:08.999Z,8.53
2022-09-27T22:46:36.823Z,8.46
2022-09-27T22:49:04.950Z,8.41
2022-09-27T22:51:33.152Z,8.33
2022-09-27T22:54:01.074Z,8.25
2022-09-27T22:56:28.838Z,8.17
2022-09-27T22:58:56.678Z,8.13
2022-09-27T23:01:25.041Z,8.11
2022-09-27T23:03:54.122Z,8.02
2022-09-27T23:06:23.021Z,7.97
2022-09-27T23:08:51.646Z,7.96
2022-09-27T23:11:22.171Z,7.93
2022-09-27T23:13:51.356Z,7.89
2022-09-27T23:16:24.805Z,7.83
2022-09-27T23:18:54.367Z,7.77
2022-09-27T23:21:26.033Z,7.73
2022-09-27T23:23:56.608Z,7.68
2022-09-27T23:26:26.312Z,7.65
2022-09-27T23:28:56.576Z,7.62
2022-09-27T23:31:25.181Z,7.52
2022-09-27T23:33:54.570Z,7.43
2022-09-27T23:36:27.260Z,7.37
2022-09-27T23:38:58.360Z,7.30
2022-09-27T23:41:26.634Z,7.28
2022-09-27T23:43:54.828Z,7.27
2022-09-27T23:46:23.035Z,7.24
2022-09-27T23:48:50.883Z,7.18
2022-09-27T23:51:18.691Z,7.12
2022-09-27T23:53:46.445Z,7.07
2022-09-27T23:56:16.806Z,7.06
2022-09-27T23:58:45.971Z,7.02
